Eighty Four, Pennsylvania
Current Conditions -  °F | °C
As of 11:35 AM on Thursday 23 Oct 2014 (Local Time) from KAFJ Reporting Station
Few Clouds Few Clouds  
Wind Chill: 54°   Ceiling: Unl
Heat Index: 54°   Visibility: 10mi
Dew Point: 43°   Wind: 7mph
Humidity: 67%   Direction: 310°NW
Pressure: 30.15"   Gusts: NA
Location:  40.18°N, 80.13°W
Report Text: KAFJ 231535Z AUTO 31006KT 240V320 10SM FEW020 12/06 A3015 RMK AO1
Loading
Personal Weather Stations






























Interactive Weather Map
Tropical Storm Tracking
New forecast layout! Learn more

10-Day Weather Forecast

Advertisements
Track Severe Weather on mobile